createdAt,value
2019-05-12T00:01:20.036Z,18.40
2019-05-12T00:03:49.407Z,18.30
2019-05-12T00:06:18.971Z,18.30
2019-05-12T00:08:48.841Z,18.30
2019-05-12T00:11:18.297Z,18.30
2019-05-12T00:13:47.826Z,18.30
2019-05-12T00:16:17.701Z,18.20
2019-05-12T00:18:48.346Z,18.20
2019-05-12T00:21:17.709Z,18.20
2019-05-12T00:24:04.630Z,18.20
2019-05-12T00:26:34.009Z,18.20
2019-05-12T00:29:03.576Z,18.10
2019-05-12T00:31:32.741Z,18.00
2019-05-12T00:34:01.482Z,18.00
2019-05-12T00:36:30.420Z,18.00
2019-05-12T00:38:59.861Z,18.00
2019-05-12T00:41:38.659Z,18.00
2019-05-12T00:44:08.892Z,17.90
2019-05-12T00:46:38.513Z,17.90
2019-05-12T00:49:08.139Z,17.90
2019-05-12T00:51:38.347Z,17.90
2019-05-12T00:54:09.173Z,17.80
2019-05-12T00:56:39.254Z,17.70
2019-05-12T00:59:08.597Z,17.70
2019-05-12T01:01:38.123Z,17.70
2019-05-12T01:04:08.778Z,17.70
2019-05-12T01:06:38.688Z,17.60
2019-05-12T01:09:08.747Z,17.60
2019-05-12T01:11:38.039Z,17.60
2019-05-12T01:14:08.524Z,17.60
2019-05-12T01:16:38.599Z,17.70
2019-05-12T01:19:08.089Z,17.60
2019-05-12T01:21:37.726Z,17.60
2019-05-12T01:24:09.225Z,17.50
2019-05-12T01:26:38.742Z,17.50
2019-05-12T01:29:08.407Z,17.50
2019-05-12T01:31:43.079Z,17.40
2019-05-12T01:34:11.952Z,17.40
2019-05-12T01:36:40.793Z,17.40
2019-05-12T01:39:09.725Z,17.40
2019-05-12T01:41:38.952Z,17.40
2019-05-12T01:44:08.978Z,17.30
2019-05-12T01:46:38.359Z,17.30
2019-05-12T01:49:08.204Z,17.30
2019-05-12T01:51:38.506Z,17.10
2019-05-12T01:54:13.784Z,17.20
2019-05-12T01:56:38.344Z,17.20
2019-05-12T01:59:08.097Z,17.10
2019-05-12T02:01:39.002Z,17.10
2019-05-12T02:04:07.863Z,17.10
2019-05-12T02:06:38.681Z,17.00
2019-05-12T02:09:10.637Z,17.00
2019-05-12T02:11:40.002Z,17.00
2019-05-12T02:14:09.416Z,17.00
2019-05-12T02:16:38.958Z,16.90
2019-05-12T02:19:09.191Z,16.90
2019-05-12T02:21:38.744Z,16.90
2019-05-12T02:24:07.950Z,16.90
2019-05-12T02:26:38.343Z,16.90
2019-05-12T02:29:08.152Z,16.80
2019-05-12T02:31:39.824Z,16.80
2019-05-12T02:34:07.530Z,16.80
2019-05-12T02:36:36.441Z,16.80
2019-05-12T02:39:07.037Z,16.80
2019-05-12T02:41:35.877Z,16.70
2019-05-12T02:44:05.450Z,16.60
2019-05-12T02:46:34.979Z,16.60
2019-05-12T02:49:05.170Z,16.60
2019-05-12T02:51:35.377Z,16.60
2019-05-12T02:54:05.446Z,16.50
2019-05-12T02:56:35.919Z,16.50
2019-05-12T02:59:05.551Z,16.40
2019-05-12T03:01:35.393Z,16.50
2019-05-12T03:04:05.725Z,16.50
2019-05-12T03:06:36.231Z,16.40
2019-05-12T03:09:07.585Z,16.40
2019-05-12T03:11:38.623Z,16.50
2019-05-12T03:14:08.010Z,16.40
2019-05-12T03:16:36.785Z,16.30
2019-05-12T03:19:06.043Z,16.30
2019-05-12T03:21:35.582Z,16.30
2019-05-12T03:24:06.440Z,16.30
2019-05-12T03:26:36.030Z,16.20
2019-05-12T03:29:05.967Z,16.20
2019-05-12T03:31:39.982Z,16.20
2019-05-12T03:34:09.302Z,16.20
2019-05-12T03:36:42.048Z,16.20
2019-05-12T03:39:08.380Z,16.20
2019-05-12T03:41:37.218Z,16.20
2019-05-12T03:44:06.281Z,16.20
2019-05-12T03:46:35.894Z,16.10
2019-05-12T03:49:05.533Z,16.10
2019-05-12T03:51:35.371Z,16.10
2019-05-12T03:54:05.225Z,16.10
2019-05-12T03:56:35.142Z,16.10
2019-05-12T03:59:05.334Z,16.10
2019-05-12T04:01:36.278Z,16.00
2019-05-12T04:04:05.843Z,16.00
2019-05-12T04:06:35.120Z,16.00
2019-05-12T04:09:08.793Z,16.00
2019-05-12T04:11:37.768Z,16.00
2019-05-12T04:14:06.626Z,16.00
2019-05-12T04:16:36.468Z,15.90
2019-05-12T04:19:06.159Z,15.90
2019-05-12T04:21:35.685Z,15.90
2019-05-12T04:24:05.816Z,16.00
2019-05-12T04:26:36.259Z,16.00
2019-05-12T04:29:05.636Z,16.00
2019-05-12T04:31:35.856Z,16.00
2019-05-12T04:34:05.480Z,16.00
2019-05-12T04:36:35.530Z,15.90
2019-05-12T04:39:06.851Z,16.00
2019-05-12T04:41:36.124Z,16.00
2019-05-12T04:44:06.047Z,15.90
2019-05-12T04:46:35.643Z,15.90
2019-05-12T04:49:05.533Z,16.00
2019-05-12T04:51:35.155Z,16.00
2019-05-12T04:54:05.686Z,16.00
2019-05-12T04:56:36.230Z,16.00
2019-05-12T04:59:05.582Z,16.10
2019-05-12T05:01:35.098Z,16.10
2019-05-12T05:04:05.678Z,16.10
2019-05-12T05:06:35.292Z,16.00
2019-05-12T05:09:06.687Z,15.90
2019-05-12T05:11:35.897Z,16.00
2019-05-12T05:14:05.170Z,16.00
2019-05-12T05:16:34.742Z,16.10
2019-05-12T05:19:03.822Z,16.10
2019-05-12T05:21:34.538Z,16.30
2019-05-12T05:24:03.894Z,16.30
2019-05-12T05:26:36.712Z,16.30
2019-05-12T05:29:04.498Z,16.30
2019-05-12T05:31:33.776Z,16.30
2019-05-12T05:34:04.750Z,16.30
2019-05-12T05:36:34.525Z,16.20
2019-05-12T05:39:05.779Z,16.30
2019-05-12T05:41:34.838Z,16.30
2019-05-12T05:44:03.924Z,16.30
2019-05-12T05:46:33.699Z,16.20
2019-05-12T05:49:04.191Z,16.30
2019-05-12T05:51:33.829Z,16.30
2019-05-12T05:54:03.957Z,16.40
2019-05-12T05:56:42.208Z,16.30
2019-05-12T05:59:04.588Z,16.30
2019-05-12T06:01:34.758Z,16.30
2019-05-12T06:04:08.329Z,16.40
2019-05-12T06:06:34.743Z,16.40
2019-05-12T06:09:06.498Z,16.40
2019-05-12T06:11:35.918Z,16.40
2019-05-12T06:14:11.376Z,16.50
2019-05-12T06:16:35.913Z,16.50
2019-05-12T06:19:05.027Z,16.50
2019-05-12T06:21:38.268Z,16.50
2019-05-12T06:24:08.821Z,16.60
2019-05-12T06:26:35.923Z,16.70
2019-05-12T06:29:04.842Z,16.70
2019-05-12T06:31:33.779Z,16.70
2019-05-12T06:34:06.276Z,16.80
2019-05-12T06:36:33.968Z,16.80
2019-05-12T06:39:04.349Z,16.90
2019-05-12T06:41:33.846Z,16.90
2019-05-12T06:44:03.712Z,16.90
2019-05-12T06:46:34.250Z,17.00
2019-05-12T06:49:11.843Z,17.20
2019-05-12T06:51:34.042Z,17.20
2019-05-12T06:54:10.396Z,17.20
2019-05-12T06:56:34.344Z,17.40
2019-05-12T06:59:10.000Z,17.40
2019-05-12T07:01:34.402Z,17.50
2019-05-12T07:04:06.616Z,17.60
2019-05-12T07:06:34.432Z,17.60
2019-05-12T07:09:09.603Z,17.60
2019-05-12T07:11:42.436Z,17.60
2019-05-12T07:14:12.918Z,17.60
2019-05-12T07:16:36.028Z,17.70
2019-05-12T07:19:09.657Z,17.60
2019-05-12T07:21:35.709Z,17.80
2019-05-12T07:24:09.742Z,17.90
2019-05-12T07:26:36.673Z,18.10
2019-05-12T07:29:05.760Z,18.20
2019-05-12T07:31:34.652Z,18.30
2019-05-12T07:34:07.428Z,18.30
2019-05-12T07:36:33.959Z,18.40
2019-05-12T07:39:05.383Z,18.40
2019-05-12T07:41:34.230Z,18.50
2019-05-12T07:44:03.757Z,18.50
2019-05-12T07:46:34.270Z,18.60
2019-05-12T07:49:03.916Z,18.70
2019-05-12T07:51:40.542Z,18.80
2019-05-12T07:54:05.003Z,18.80
2019-05-12T07:56:35.859Z,18.80
2019-05-12T07:59:13.571Z,18.80
2019-05-12T08:01:52.032Z,18.90
2019-05-12T08:04:20.260Z,19.10
2019-05-12T08:06:49.111Z,19.40
2019-05-12T08:09:17.897Z,19.50
2019-05-12T08:11:46.689Z,19.60
2019-05-12T08:14:24.881Z,19.80
2019-05-12T08:16:45.988Z,20.10
2019-05-12T08:19:23.693Z,20.40
2019-05-12T08:21:50.890Z,20.60
2019-05-12T08:24:28.579Z,20.90
2019-05-12T08:27:03.057Z,21.10
2019-05-12T08:29:27.932Z,21.30
2019-05-12T08:31:56.656Z,21.60
2019-05-12T08:34:25.475Z,21.80
2019-05-12T08:36:58.182Z,22.00
2019-05-12T08:39:27.560Z,21.80
2019-05-12T08:41:56.705Z,21.40
2019-05-12T08:44:33.569Z,21.10
2019-05-12T08:46:57.282Z,20.90
2019-05-12T08:49:26.148Z,20.80
2019-05-12T08:51:58.569Z,20.70
2019-05-12T08:54:25.476Z,20.70
2019-05-12T08:56:59.368Z,20.60
2019-05-12T08:59:29.674Z,20.60
2019-05-12T09:02:00.588Z,20.90
2019-05-12T09:04:29.973Z,21.30
2019-05-12T09:06:59.926Z,21.80
2019-05-12T09:09:29.169Z,22.10
2019-05-12T09:11:57.933Z,22.20
2019-05-12T09:14:27.238Z,22.00
2019-05-12T09:17:02.597Z,22.00
2019-05-12T09:19:27.311Z,22.30
2019-05-12T09:21:56.814Z,22.60
2019-05-12T09:24:27.409Z,23.00
2019-05-12T09:26:59.141Z,23.30
2019-05-12T09:29:27.421Z,23.60
2019-05-12T09:32:05.481Z,23.90
2019-05-12T09:34:30.376Z,23.80
2019-05-12T09:37:00.923Z,23.40
2019-05-12T09:39:36.441Z,23.00
2019-05-12T09:42:00.955Z,22.80
2019-05-12T09:44:30.699Z,22.70
2019-05-12T09:46:59.512Z,22.60
2019-05-12T09:49:39.018Z,22.50
2019-05-12T09:51:59.500Z,22.70
2019-05-12T09:54:35.269Z,22.90
2019-05-12T09:56:59.797Z,23.20
2019-05-12T09:59:28.714Z,23.00
2019-05-12T10:01:58.399Z,22.80
2019-05-12T10:04:27.805Z,22.40
2019-05-12T10:06:56.617Z,22.20
2019-05-12T10:09:25.465Z,22.10
2019-05-12T10:12:00.856Z,22.10
2019-05-12T10:14:24.852Z,22.70
2019-05-12T10:16:53.609Z,23.30
2019-05-12T10:19:23.543Z,23.70
2019-05-12T10:21:55.213Z,23.80
2019-05-12T10:24:22.957Z,23.50
2019-05-12T10:26:53.999Z,23.20
2019-05-12T10:29:24.194Z,23.00
2019-05-12T10:31:53.618Z,22.90
2019-05-12T10:34:24.023Z,22.90
2019-05-12T10:36:53.738Z,23.10
2019-05-12T10:39:24.430Z,23.20
2019-05-12T10:41:54.538Z,23.40
2019-05-12T10:44:23.668Z,23.50
2019-05-12T10:46:55.237Z,23.80
2019-05-12T10:49:24.020Z,24.20
2019-05-12T10:51:54.002Z,24.70
2019-05-12T10:54:24.264Z,25.10
2019-05-12T10:56:54.644Z,25.50
2019-05-12T10:59:32.187Z,26.00
2019-05-12T11:01:54.188Z,25.90
2019-05-12T11:04:35.236Z,25.60
2019-05-12T11:06:53.922Z,25.50
2019-05-12T11:09:27.399Z,25.20
2019-05-12T11:11:54.521Z,25.10
2019-05-12T11:14:26.501Z,25.00
2019-05-12T11:16:56.582Z,24.80
2019-05-12T11:19:25.469Z,25.00
2019-05-12T11:21:54.931Z,25.30
2019-05-12T11:24:23.777Z,25.30
2019-05-12T11:26:53.636Z,25.10
2019-05-12T11:29:23.577Z,25.60
2019-05-12T11:31:53.853Z,26.20
2019-05-12T11:34:23.128Z,26.70
2019-05-12T11:36:54.393Z,26.90
2019-05-12T11:39:23.620Z,27.00
2019-05-12T11:41:55.298Z,27.40
2019-05-12T11:44:23.824Z,27.90
2019-05-12T11:46:54.693Z,28.40
2019-05-12T11:49:26.292Z,28.20
2019-05-12T11:52:01.002Z,28.00
2019-05-12T11:54:28.735Z,28.40
2019-05-12T11:56:57.568Z,28.90
2019-05-12T11:59:26.372Z,29.50
2019-05-12T12:01:56.151Z,29.80
2019-05-12T12:04:26.825Z,30.00
2019-05-12T12:06:55.652Z,30.30
2019-05-12T12:09:24.382Z,30.50
2019-05-12T12:11:54.684Z,30.70
2019-05-12T12:14:24.079Z,31.00
2019-05-12T12:16:54.454Z,31.30
2019-05-12T12:19:26.168Z,31.60
2019-05-12T12:21:54.400Z,31.70
2019-05-12T12:24:29.943Z,31.80
2019-05-12T12:26:53.858Z,32.10
2019-05-12T12:29:24.075Z,32.20
2019-05-12T12:31:54.103Z,32.10
2019-05-12T12:34:29.341Z,31.50
2019-05-12T12:36:54.558Z,31.30
2019-05-12T12:39:23.911Z,31.50
2019-05-12T12:41:59.820Z,31.60
2019-05-12T12:44:24.300Z,31.70
2019-05-12T12:46:59.917Z,32.00
2019-05-12T12:49:28.970Z,32.20
2019-05-12T12:51:56.657Z,32.40
2019-05-12T12:54:26.029Z,32.00
2019-05-12T12:57:00.022Z,31.30
2019-05-12T12:59:26.644Z,30.80
2019-05-12T13:01:59.061Z,30.50
2019-05-12T13:04:28.844Z,30.20
2019-05-12T13:06:57.705Z,30.60
2019-05-12T13:09:26.652Z,31.20
2019-05-12T13:11:55.720Z,31.60
2019-05-12T13:14:28.639Z,32.00
2019-05-12T13:16:56.217Z,32.30
2019-05-12T13:19:25.155Z,32.70
2019-05-12T13:21:53.981Z,33.20
2019-05-12T13:24:22.754Z,33.20
2019-05-12T13:26:51.548Z,33.30
2019-05-12T13:29:20.353Z,33.40
2019-05-12T13:31:49.115Z,33.60
2019-05-12T13:34:17.870Z,33.60
2019-05-12T13:36:47.292Z,33.70
2019-05-12T13:39:16.740Z,33.80
2019-05-12T13:41:50.403Z,33.70
2019-05-12T13:44:17.209Z,33.70
2019-05-12T13:46:48.854Z,33.80
2019-05-12T13:49:17.543Z,33.80
2019-05-12T13:51:48.342Z,33.60
2019-05-12T13:54:20.066Z,33.50
2019-05-12T13:56:48.384Z,33.40
2019-05-12T13:59:20.911Z,33.30
2019-05-12T14:01:47.714Z,33.10
2019-05-12T14:04:16.627Z,33.00
2019-05-12T14:06:45.380Z,32.90
2019-05-12T14:09:14.230Z,32.60
2019-05-12T14:11:43.663Z,32.50
2019-05-12T14:14:15.585Z,32.30
2019-05-12T14:16:44.656Z,32.20
2019-05-12T14:19:14.411Z,32.10
2019-05-12T14:21:43.374Z,31.90
2019-05-12T14:24:13.984Z,31.80
2019-05-12T14:26:45.367Z,31.80
2019-05-12T14:29:13.821Z,31.60
2019-05-12T14:31:51.066Z,31.60
2019-05-12T14:34:18.772Z,31.60
2019-05-12T14:36:45.414Z,31.40
2019-05-12T14:39:14.303Z,31.30
2019-05-12T14:41:53.173Z,31.20
2019-05-12T14:44:13.954Z,31.20
2019-05-12T14:46:46.318Z,31.10
2019-05-12T14:49:14.281Z,31.20
2019-05-12T14:51:44.443Z,31.00
2019-05-12T14:54:13.568Z,31.10
2019-05-12T14:56:44.874Z,31.00
2019-05-12T14:59:14.448Z,30.90
2019-05-12T15:01:57.101Z,30.80
2019-05-12T15:04:19.497Z,30.60
2019-05-12T15:06:45.940Z,30.60
2019-05-12T15:09:20.151Z,30.50
2019-05-12T15:11:45.264Z,30.30
2019-05-12T15:14:14.036Z,30.20
2019-05-12T15:16:45.927Z,30.00
2019-05-12T15:19:14.798Z,29.80
2019-05-12T15:21:43.780Z,29.80
2019-05-12T15:24:15.557Z,29.70
2019-05-12T15:26:44.105Z,29.60
2019-05-12T15:29:19.899Z,29.50
2019-05-12T15:31:53.291Z,29.30
2019-05-12T15:34:15.999Z,29.20
2019-05-12T15:36:52.079Z,29.00
2019-05-12T15:39:15.808Z,28.90
2019-05-12T15:41:45.433Z,28.90
2019-05-12T15:44:14.754Z,28.80
2019-05-12T15:46:46.554Z,28.80
2019-05-12T15:49:14.424Z,28.70
2019-05-12T15:51:53.117Z,28.50
2019-05-12T15:54:14.762Z,28.40
2019-05-12T15:56:43.869Z,28.30
2019-05-12T15:59:14.632Z,28.10
2019-05-12T16:01:44.054Z,28.10
2019-05-12T16:04:15.090Z,28.00
2019-05-12T16:06:52.980Z,27.90
2019-05-12T16:09:14.500Z,27.90
2019-05-12T16:11:43.302Z,27.80
2019-05-12T16:14:12.397Z,27.60
2019-05-12T16:16:46.228Z,27.60
2019-05-12T16:19:14.700Z,27.60
2019-05-12T16:21:45.593Z,27.50
2019-05-12T16:24:15.771Z,27.50
2019-05-12T16:26:51.609Z,27.50
2019-05-12T16:29:15.747Z,27.40
2019-05-12T16:31:49.665Z,27.30
2019-05-12T16:34:16.183Z,27.30
2019-05-12T16:36:49.895Z,27.10
2019-05-12T16:39:16.479Z,27.00
2019-05-12T16:41:45.476Z,27.00
2019-05-12T16:44:21.181Z,26.90
2019-05-12T16:46:46.671Z,26.80
2019-05-12T16:49:15.981Z,26.80
2019-05-12T16:51:45.181Z,26.70
2019-05-12T16:54:14.022Z,26.70
2019-05-12T16:56:43.449Z,26.60
2019-05-12T16:59:17.002Z,26.50
2019-05-12T17:01:43.989Z,26.50
2019-05-12T17:04:13.541Z,26.40
2019-05-12T17:06:43.304Z,26.30
2019-05-12T17:09:13.905Z,26.30
2019-05-12T17:11:47.345Z,26.20
2019-05-12T17:14:14.237Z,26.10
2019-05-12T17:16:46.549Z,26.10
2019-05-12T17:19:15.489Z,26.00
2019-05-12T17:21:49.500Z,25.90
2019-05-12T17:24:15.389Z,25.90
2019-05-12T17:26:44.146Z,25.80
2019-05-12T17:29:13.717Z,25.70
2019-05-12T17:31:44.393Z,25.70
2019-05-12T17:34:14.286Z,25.60
2019-05-12T17:36:44.865Z,25.60
2019-05-12T17:39:14.252Z,25.50
2019-05-12T17:41:45.533Z,25.50
2019-05-12T17:44:14.178Z,25.40
2019-05-12T17:46:44.237Z,25.30
2019-05-12T17:49:15.786Z,25.30
2019-05-12T17:51:44.048Z,25.20
2019-05-12T17:54:21.238Z,25.20
2019-05-12T17:56:43.412Z,25.10
2019-05-12T17:59:17.047Z,25.00
2019-05-12T18:01:43.604Z,24.90
2019-05-12T18:04:13.979Z,24.80
2019-05-12T18:06:44.179Z,24.80
2019-05-12T18:09:15.688Z,24.70
2019-05-12T18:11:46.181Z,24.70
2019-05-12T18:14:18.632Z,24.70
2019-05-12T18:16:52.673Z,24.50
2019-05-12T18:19:19.641Z,24.50
2019-05-12T18:21:48.414Z,24.40
2019-05-12T18:24:17.212Z,24.30
2019-05-12T18:26:54.533Z,24.20
2019-05-12T18:29:16.610Z,24.10
2019-05-12T18:31:45.511Z,24.10
2019-05-12T18:34:14.702Z,24.00
2019-05-12T18:36:43.745Z,23.90
2019-05-12T18:39:15.294Z,23.90
2019-05-12T18:41:43.888Z,23.80
2019-05-12T18:44:15.897Z,23.80
2019-05-12T18:46:45.221Z,23.60
2019-05-12T18:49:16.267Z,23.60
2019-05-12T18:51:48.967Z,23.50
2019-05-12T18:54:17.097Z,23.40
2019-05-12T18:56:51.594Z,23.40
2019-05-12T18:59:17.040Z,23.30
2019-05-12T19:01:45.942Z,23.20
2019-05-12T19:04:14.992Z,23.10
2019-05-12T19:06:44.169Z,23.10
2019-05-12T19:09:14.051Z,23.00
2019-05-12T19:11:46.666Z,22.90
2019-05-12T19:14:14.353Z,22.80
2019-05-12T19:16:43.777Z,22.70
2019-05-12T19:19:16.469Z,22.60
2019-05-12T19:21:43.821Z,22.50
2019-05-12T19:24:19.574Z,22.50
2019-05-12T19:26:46.515Z,22.40
2019-05-12T19:29:24.304Z,22.50
2019-05-12T19:31:57.904Z,22.40
2019-05-12T19:34:26.310Z,22.30
2019-05-12T19:36:55.763Z,22.30
2019-05-12T19:39:25.516Z,22.20
2019-05-12T19:41:54.664Z,22.10
2019-05-12T19:44:26.534Z,22.00
2019-05-12T19:46:54.107Z,22.00
2019-05-12T19:49:25.933Z,22.00
2019-05-12T19:51:54.390Z,21.90
2019-05-12T19:54:25.449Z,21.80
2019-05-12T19:56:54.388Z,21.80
2019-05-12T19:59:23.720Z,21.70
2019-05-12T20:01:53.691Z,21.60
2019-05-12T20:04:30.789Z,21.60
2019-05-12T20:06:54.477Z,21.60
2019-05-12T20:09:24.296Z,21.60
2019-05-12T20:11:53.953Z,21.50
2019-05-12T20:14:24.097Z,21.50
2019-05-12T20:16:54.428Z,21.40
2019-05-12T20:19:25.304Z,21.40
2019-05-12T20:21:54.637Z,21.40
2019-05-12T20:24:24.246Z,21.40
2019-05-12T20:26:53.907Z,21.40
2019-05-12T20:29:26.613Z,21.30
2019-05-12T20:31:54.091Z,21.20
2019-05-12T20:34:24.436Z,21.20
2019-05-12T20:36:53.766Z,21.10
2019-05-12T20:39:24.518Z,21.10
2019-05-12T20:41:54.492Z,21.00
2019-05-12T20:44:24.344Z,20.90
2019-05-12T20:46:56.264Z,20.90
2019-05-12T20:49:24.156Z,20.90
2019-05-12T20:51:54.876Z,20.90
2019-05-12T20:54:24.373Z,20.80
2019-05-12T20:57:01.845Z,20.80
2019-05-12T20:59:28.102Z,20.70
2019-05-12T21:01:54.743Z,20.70
2019-05-12T21:04:31.262Z,20.60
2019-05-12T21:06:54.406Z,20.60
2019-05-12T21:09:23.775Z,20.60
2019-05-12T21:11:54.717Z,20.50
2019-05-12T21:14:24.185Z,20.50
2019-05-12T21:16:53.839Z,20.40
2019-05-12T21:19:24.056Z,20.30
2019-05-12T21:21:54.229Z,20.30
2019-05-12T21:24:24.453Z,20.20
2019-05-12T21:26:54.706Z,20.20
2019-05-12T21:29:25.692Z,20.10
2019-05-12T21:31:56.288Z,20.10
2019-05-12T21:34:25.601Z,20.00
2019-05-12T21:36:59.038Z,20.00
2019-05-12T21:39:25.098Z,20.00
2019-05-12T21:41:54.904Z,20.00
2019-05-12T21:44:24.545Z,20.00
2019-05-12T21:47:03.781Z,19.90
2019-05-12T21:49:25.282Z,19.90
2019-05-12T21:51:58.941Z,19.90
2019-05-12T21:54:29.474Z,19.80
2019-05-12T21:56:56.136Z,19.80
2019-05-12T21:59:29.042Z,19.70
2019-05-12T22:01:55.751Z,19.60
2019-05-12T22:04:24.684Z,19.60
2019-05-12T22:06:56.866Z,19.50
2019-05-12T22:09:24.191Z,19.50
2019-05-12T22:11:54.181Z,19.50
2019-05-12T22:14:24.080Z,19.50
2019-05-12T22:16:54.650Z,19.40
2019-05-12T22:19:23.716Z,19.40
2019-05-12T22:21:53.670Z,19.40
2019-05-12T22:24:25.236Z,19.40
2019-05-12T22:26:54.326Z,19.30
2019-05-12T22:29:29.933Z,19.20
2019-05-12T22:31:54.658Z,19.30
2019-05-12T22:34:27.575Z,19.20
2019-05-12T22:36:58.749Z,19.20
2019-05-12T22:39:25.623Z,19.00
2019-05-12T22:41:54.728Z,19.00
2019-05-12T22:44:25.103Z,19.00
2019-05-12T22:46:54.209Z,18.90
2019-05-12T22:49:23.549Z,18.90
2019-05-12T22:51:54.592Z,18.90
2019-05-12T22:54:24.360Z,19.00
2019-05-12T22:56:55.345Z,18.80
2019-05-12T22:59:24.791Z,18.80
2019-05-12T23:01:54.256Z,18.80
2019-05-12T23:04:25.879Z,18.70
2019-05-12T23:06:54.115Z,18.70
2019-05-12T23:09:27.945Z,18.70
2019-05-12T23:11:53.698Z,18.60
2019-05-12T23:14:24.980Z,18.60
2019-05-12T23:17:00.173Z,18.50
2019-05-12T23:19:26.809Z,18.50
2019-05-12T23:21:58.785Z,18.60
2019-05-12T23:24:30.393Z,18.50
2019-05-12T23:26:57.724Z,18.50
2019-05-12T23:29:31.004Z,18.40
2019-05-12T23:32:00.510Z,18.40
2019-05-12T23:34:28.777Z,18.30
2019-05-12T23:37:00.027Z,18.30
2019-05-12T23:39:32.472Z,18.30
2019-05-12T23:41:59.416Z,18.20
2019-05-12T23:44:28.494Z,18.20
2019-05-12T23:46:57.270Z,18.20
2019-05-12T23:49:26.020Z,18.00
2019-05-12T23:51:55.117Z,18.10
2019-05-12T23:54:24.168Z,18.10
2019-05-12T23:56:53.685Z,18.00
2019-05-12T23:59:23.971Z,18.00
